KPIE

St Pete-Clearwater International Airport

St Petersburg-Clearwater, Florida, USA
METAR KPIE 212253Z 30009KT 10SM SCT029 29/25 A2991 RMK AO2 SLP128 T02940250
Observed Flight Rules
Jun-21 @ 22:53 UTC (59 minutes ago) Visual Flight Rules
Wind Visibility Clouds
300° at 9 knots 10 miles
  • Scattered at 2,900' AGL
Temperatures Readings
Current 29°C / 84°F
Dewpoint 25°C / 77°F
Humidity 79%
Altimeter 29.91" Hg
Pressure 1012.8 hPa
Elevation 4
METAR KPIE 212253Z 30009KT 10SM SCT029 29/25 A2991 RMK AO2 SLP128 T02940250
Observed Flight Rules
Jun-21 @ 22:53 UTC
(59 minutes ago)
VFR
Wind Visibility
300° at 9 knots 10 miles
Clouds
  • Scattered at 2,900' AGL
Temperature Dewpoint
29°C / 84°F 25°C / 77°F
Humidity Altimeter Pressure
79% 29.91" Hg 1012.8 hPa